OTBD Airport Information

Runway Information
Runway 15 Length 15000 ft width 151 ft
Elevation 35 ft Threshold 2460 ft Heading 158
Runway 33 Length 15000 ft Width 151 ft
Elevation 25 ft Threshold 0 ft Heading 338
Airport Frequencies
Type APP Name APP Frequency 121.1 MHZ
Type ATIS Name ATIS Frequency 126.45 MHZ
Type GND Name GND Frequency 118.275 MHZ
Type OPS Name KINGFISH N Frequency 139.5 MHZ
Type TWR Name TWR Frequency 118.9 MHZ
Airport Navaids
Type VOR-DME Name Doha Frequency 112400 KHZ
Type NDB Name Wk Frequency 323 KHZ
Airport Weather Information & NOTAM
ADDS - METARS form results

(0235 UTC 23 August 2019)
Data provider http://aviationweather.gov/metar/data/
 
Forecast for: OTBD (DOHA INTL AIRPOR, QA)
Text: TAF OTBD 222304Z 2300/2406 09008KT 8000 NSC
Forecast period: 0000 UTC 23 August 2019 to 0600 UTC 24 August 2019
Forecast type: FROM: standard forecast or significant change
Winds: from the E (90 degrees) at 9 MPH (8 knots; 4.1 m/s)
Visibility: 5 miles (8 km)
Ceiling: unknown
Clouds: missing
Weather: no significant weather forecast for this period
Text: PROB30
Forecast period: 0000 to 0400 UTC 23 August 2019
Forecast type: TEMPORARY: The following changes expected for less than half the time period
Visibility: 3 miles (5 km)
Ceiling: unknown
Clouds: missing
Weather: HZ  (haze)